createdAt,value
2018-11-13T00:02:23.787Z,9.40
2018-11-13T00:04:51.132Z,9.30
2018-11-13T00:07:18.480Z,9.50
2018-11-13T00:09:47.823Z,9.20
2018-11-13T00:12:15.189Z,8.80
2018-11-13T00:14:42.566Z,9.20
2018-11-13T00:17:09.926Z,9.10
2018-11-13T00:19:37.282Z,9.10
2018-11-13T00:22:05.859Z,9.00
2018-11-13T00:24:33.236Z,9.20
2018-11-13T00:27:00.732Z,9.80
2018-11-13T00:29:28.142Z,9.20
2018-11-13T00:31:55.504Z,9.10
2018-11-13T00:34:23.956Z,9.20
2018-11-13T00:36:51.345Z,9.20
2018-11-13T00:39:19.019Z,9.10
2018-11-13T00:41:46.087Z,9.10
2018-11-13T00:44:13.421Z,9.20
2018-11-13T00:46:40.805Z,9.10
2018-11-13T00:49:08.127Z,9.00
2018-11-13T00:51:36.385Z,9.10
2018-11-13T00:54:03.816Z,9.00
2018-11-13T00:56:31.312Z,9.00
2018-11-13T00:58:58.682Z,9.00
2018-11-13T01:01:26.027Z,9.00
2018-11-13T01:03:53.391Z,8.90
2018-11-13T01:06:20.737Z,8.90
2018-11-13T01:08:48.121Z,8.80
2018-11-13T01:11:15.481Z,8.80
2018-11-13T01:13:42.876Z,8.70
2018-11-13T01:16:10.196Z,8.80
2018-11-13T01:18:37.547Z,8.80
2018-11-13T01:21:05.117Z,8.80
2018-11-13T01:23:32.436Z,8.80
2018-11-13T01:25:59.775Z,8.70
2018-11-13T01:28:27.129Z,8.60
2018-11-13T01:30:54.609Z,8.60
2018-11-13T01:33:21.925Z,8.60
2018-11-13T01:35:49.309Z,8.60
2018-11-13T01:38:16.669Z,8.60
2018-11-13T01:40:44.021Z,8.60
2018-11-13T01:43:11.377Z,8.60
2018-11-13T01:45:38.713Z,8.60
2018-11-13T01:48:06.119Z,8.50
2018-11-13T01:50:35.644Z,8.50
2018-11-13T01:53:03.064Z,8.40
2018-11-13T01:55:30.427Z,8.50
2018-11-13T01:57:57.893Z,8.50
2018-11-13T02:00:25.290Z,8.50
2018-11-13T02:02:53.912Z,8.40
2018-11-13T02:05:22.396Z,8.50
2018-11-13T02:07:50.148Z,8.50
2018-11-13T02:10:18.036Z,8.50
2018-11-13T02:12:45.884Z,8.60
2018-11-13T02:15:13.218Z,8.60
2018-11-13T02:17:40.557Z,8.60
2018-11-13T02:20:11.809Z,8.70
2018-11-13T02:22:39.394Z,8.70
2018-11-13T02:25:08.926Z,8.70
2018-11-13T02:27:36.268Z,8.70
2018-11-13T02:30:04.241Z,8.70
2018-11-13T02:32:31.729Z,8.70
2018-11-13T02:34:59.070Z,8.70
2018-11-13T02:37:26.408Z,8.80
2018-11-13T02:39:53.713Z,8.80
2018-11-13T02:42:21.049Z,9.40
2018-11-13T02:44:48.347Z,8.80
2018-11-13T02:47:16.669Z,8.70
2018-11-13T02:49:43.966Z,8.70
2018-11-13T02:52:11.276Z,8.60
2018-11-13T02:54:38.572Z,8.60
2018-11-13T02:57:05.920Z,8.60
2018-11-13T02:59:33.246Z,8.50
2018-11-13T03:02:00.572Z,8.40
2018-11-13T03:04:27.877Z,8.30
2018-11-13T03:06:55.204Z,8.30
2018-11-13T03:09:22.586Z,8.30
2018-11-13T03:11:49.880Z,8.30
2018-11-13T03:14:17.204Z,8.20
2018-11-13T03:16:44.527Z,8.20
2018-11-13T03:19:11.852Z,8.20
2018-11-13T03:21:39.169Z,8.20
2018-11-13T03:24:06.480Z,8.30
2018-11-13T03:26:33.796Z,8.30
2018-11-13T03:29:01.158Z,8.40
2018-11-13T03:31:28.872Z,8.40
2018-11-13T03:33:56.097Z,8.50
2018-11-13T03:36:23.419Z,8.50
2018-11-13T03:38:50.755Z,8.60
2018-11-13T03:41:18.133Z,8.60
2018-11-13T03:43:45.484Z,8.60
2018-11-13T03:46:12.821Z,8.60
2018-11-13T03:48:40.140Z,8.60
2018-11-13T03:51:07.447Z,8.60
2018-11-13T03:53:34.756Z,8.70
2018-11-13T03:56:02.868Z,8.60
2018-11-13T03:58:30.184Z,8.70
2018-11-13T04:00:57.509Z,8.80
2018-11-13T04:03:24.821Z,8.70
2018-11-13T04:05:52.140Z,8.80
2018-11-13T04:08:20.485Z,8.70
2018-11-13T04:10:47.832Z,8.80
2018-11-13T04:13:15.159Z,8.80
2018-11-13T04:15:42.492Z,8.80
2018-11-13T04:18:09.806Z,8.90
2018-11-13T04:20:37.131Z,8.90
2018-11-13T04:23:04.589Z,9.00
2018-11-13T04:25:31.973Z,9.20
2018-11-13T04:27:59.325Z,9.30
2018-11-13T04:30:26.687Z,9.50
2018-11-13T04:32:53.997Z,9.60
2018-11-13T04:35:21.749Z,9.70
2018-11-13T04:37:49.071Z,9.70
2018-11-13T04:40:19.616Z,9.80
2018-11-13T04:42:48.277Z,9.80
2018-11-13T04:45:16.852Z,9.90
2018-11-13T04:47:45.396Z,9.90
2018-11-13T04:50:13.886Z,10.00
2018-11-13T04:52:41.684Z,10.10
2018-11-13T04:55:09.551Z,10.20
2018-11-13T04:57:37.012Z,10.30
2018-11-13T05:00:06.854Z,10.40
2018-11-13T05:02:34.239Z,10.30
2018-11-13T05:05:01.573Z,10.20
2018-11-13T05:07:28.936Z,9.90
2018-11-13T05:09:56.297Z,9.80
2018-11-13T05:12:23.649Z,9.70
2018-11-13T05:14:50.985Z,9.60
2018-11-13T05:17:19.668Z,9.50
2018-11-13T05:19:46.996Z,9.50
2018-11-13T05:22:14.548Z,9.50
2018-11-13T05:24:41.883Z,9.40
2018-11-13T05:27:10.232Z,9.30
2018-11-13T05:29:37.578Z,9.30
2018-11-13T05:32:04.859Z,9.30
2018-11-13T05:34:32.130Z,9.20
2018-11-13T05:37:00.290Z,9.10
2018-11-13T05:39:27.578Z,9.10
2018-11-13T05:41:54.918Z,9.20
2018-11-13T05:44:22.403Z,9.20
2018-11-13T05:46:49.668Z,9.20
2018-11-13T05:49:16.926Z,9.20
2018-11-13T05:51:44.182Z,9.40
2018-11-13T05:54:11.455Z,9.50
2018-11-13T05:56:38.727Z,9.70
2018-11-13T05:59:06.122Z,9.80
2018-11-13T06:01:33.427Z,10.00
2018-11-13T06:04:00.748Z,9.90
2018-11-13T06:06:29.048Z,9.90
2018-11-13T06:08:56.377Z,9.80
2018-11-13T06:11:23.708Z,9.50
2018-11-13T06:13:51.020Z,9.30
2018-11-13T06:16:18.314Z,9.20
2018-11-13T06:18:45.645Z,8.90
2018-11-13T06:21:12.963Z,8.60
2018-11-13T06:23:40.348Z,8.20
2018-11-13T06:26:07.652Z,8.20
2018-11-13T06:28:34.954Z,8.10
2018-11-13T06:31:02.276Z,8.00
2018-11-13T06:33:30.095Z,7.80
2018-11-13T06:35:57.425Z,7.80
2018-11-13T06:38:24.683Z,7.80
2018-11-13T06:40:52.292Z,7.70
2018-11-13T06:43:19.704Z,7.70
2018-11-13T06:45:47.079Z,7.70
2018-11-13T06:48:14.442Z,7.70
2018-11-13T06:50:41.761Z,7.80
2018-11-13T06:53:09.112Z,7.80
2018-11-13T06:55:38.409Z,7.70
2018-11-13T06:58:06.029Z,7.70
2018-11-13T07:00:33.396Z,7.60
2018-11-13T07:03:00.773Z,7.50
2018-11-13T07:05:28.132Z,7.40
2018-11-13T07:07:55.498Z,7.50
2018-11-13T07:10:24.129Z,7.60
2018-11-13T07:12:52.200Z,7.60
2018-11-13T07:15:20.833Z,7.70
2018-11-13T07:17:49.381Z,7.60
2018-11-13T07:20:17.796Z,7.70
2018-11-13T07:22:45.154Z,7.70
2018-11-13T07:25:12.895Z,7.70
2018-11-13T07:27:40.903Z,7.70
2018-11-13T07:30:09.845Z,7.80
2018-11-13T07:32:37.606Z,7.90
2018-11-13T07:35:05.912Z,8.10
2018-11-13T07:37:33.240Z,8.10
2018-11-13T07:40:00.576Z,8.30
2018-11-13T07:42:27.909Z,8.40
2018-11-13T07:44:55.260Z,8.50
2018-11-13T07:47:22.717Z,8.60
2018-11-13T07:49:49.910Z,8.80
2018-11-13T07:52:17.220Z,8.90
2018-11-13T07:54:44.539Z,8.90
2018-11-13T07:57:11.857Z,8.90
2018-11-13T07:59:39.169Z,9.10
2018-11-13T08:02:06.511Z,9.30
2018-11-13T08:04:34.536Z,9.20
2018-11-13T08:07:02.200Z,9.30
2018-11-13T08:09:29.570Z,9.50
2018-11-13T08:11:56.873Z,9.80
2018-11-13T08:14:24.220Z,10.10
2018-11-13T08:16:52.090Z,10.40
2018-11-13T08:19:19.533Z,10.60
2018-11-13T08:21:46.860Z,10.80
2018-11-13T08:24:14.176Z,11.00
2018-11-13T08:26:41.761Z,11.40
2018-11-13T08:29:09.127Z,11.70
2018-11-13T08:31:36.445Z,11.90
2018-11-13T08:34:04.240Z,12.30
2018-11-13T08:36:31.613Z,12.80
2018-11-13T08:38:58.936Z,13.10
2018-11-13T08:41:26.256Z,13.30
2018-11-13T08:43:53.623Z,13.50
2018-11-13T08:46:20.892Z,13.80
2018-11-13T08:48:48.240Z,14.00
2018-11-13T08:51:15.577Z,14.30
2018-11-13T08:53:42.909Z,14.70
2018-11-13T08:56:10.228Z,14.90
2018-11-13T08:58:37.646Z,14.80
2018-11-13T09:01:05.085Z,15.90
2018-11-13T09:03:32.400Z,15.60
2018-11-13T09:05:59.722Z,16.00
2018-11-13T09:08:27.038Z,16.20
2018-11-13T09:10:54.365Z,16.20
2018-11-13T09:13:21.810Z,16.10
2018-11-13T09:15:49.135Z,16.20
2018-11-13T09:18:16.465Z,16.10
2018-11-13T09:20:43.785Z,15.90
2018-11-13T09:23:11.081Z,15.90
2018-11-13T09:25:38.388Z,15.80
2018-11-13T09:28:05.740Z,15.70
2018-11-13T09:30:33.324Z,15.80
2018-11-13T09:33:00.435Z,15.60
2018-11-13T09:35:27.811Z,15.70
2018-11-13T09:37:55.107Z,15.80
2018-11-13T09:40:22.416Z,15.90
2018-11-13T09:42:50.888Z,15.80
2018-11-13T09:45:18.539Z,15.70
2018-11-13T09:47:45.913Z,15.70
2018-11-13T09:50:14.783Z,15.60
2018-11-13T09:52:43.376Z,15.80
2018-11-13T09:55:12.240Z,16.00
2018-11-13T09:57:39.704Z,16.10
2018-11-13T10:00:12.476Z,16.00
2018-11-13T10:02:40.487Z,15.90
2018-11-13T10:05:07.613Z,15.60
2018-11-13T10:07:34.355Z,15.70
2018-11-13T10:10:01.705Z,15.80
2018-11-13T10:12:29.176Z,15.80
2018-11-13T10:14:56.492Z,15.80
2018-11-13T10:17:23.828Z,15.50
2018-11-13T10:19:51.136Z,15.10
2018-11-13T10:22:18.474Z,14.80
2018-11-13T10:24:45.788Z,14.70
2018-11-13T10:27:13.201Z,14.80
2018-11-13T10:29:40.437Z,14.30
2018-11-13T10:32:07.760Z,13.90
2018-11-13T10:34:35.091Z,13.80
2018-11-13T10:37:02.412Z,13.60
2018-11-13T10:39:29.776Z,13.30
2018-11-13T10:41:58.113Z,13.20
2018-11-13T10:44:25.488Z,12.90
2018-11-13T10:46:52.821Z,12.80
2018-11-13T10:49:20.201Z,12.90
2018-11-13T10:51:47.519Z,12.90
2018-11-13T10:54:14.820Z,12.90
2018-11-13T10:56:42.140Z,13.00
2018-11-13T10:59:09.470Z,13.10
2018-11-13T11:01:42.600Z,13.00
2018-11-13T11:04:15.780Z,12.90
2018-11-13T11:06:43.100Z,12.80
2018-11-13T11:09:10.432Z,12.90
2018-11-13T11:11:38.596Z,13.20
2018-11-13T11:14:06.083Z,13.10
2018-11-13T11:16:33.268Z,12.90
2018-11-13T11:19:00.621Z,12.80
2018-11-13T11:21:27.948Z,12.80
2018-11-13T11:23:55.276Z,12.70
2018-11-13T11:26:22.616Z,12.70
2018-11-13T11:28:49.928Z,12.60
2018-11-13T11:31:17.260Z,12.60
2018-11-13T11:33:44.608Z,12.50
2018-11-13T11:36:11.941Z,12.60
2018-11-13T11:38:39.376Z,12.60
2018-11-13T11:41:06.620Z,12.60
2018-11-13T11:43:33.946Z,12.60
2018-11-13T11:46:01.264Z,12.30
2018-11-13T11:48:28.581Z,12.40
2018-11-13T11:50:55.901Z,12.40
2018-11-13T11:53:23.216Z,12.30
2018-11-13T11:55:50.528Z,12.30
2018-11-13T11:58:17.877Z,12.50
2018-11-13T12:00:45.258Z,12.50
2018-11-13T12:03:12.479Z,12.50
2018-11-13T12:05:39.797Z,12.40
2018-11-13T12:08:07.106Z,12.10
2018-11-13T12:10:34.440Z,11.80
2018-11-13T12:13:01.753Z,11.70
2018-11-13T12:15:29.141Z,11.80
2018-11-13T12:17:56.456Z,11.80
2018-11-13T12:20:23.768Z,11.90
2018-11-13T12:22:51.211Z,12.00
2018-11-13T12:25:20.163Z,12.00
2018-11-13T12:27:46.932Z,11.80
2018-11-13T12:30:16.305Z,11.90
2018-11-13T12:32:44.380Z,12.10
2018-11-13T12:35:12.865Z,12.10
2018-11-13T12:37:40.244Z,12.10
2018-11-13T12:40:09.920Z,12.10
2018-11-13T12:42:37.244Z,12.10
2018-11-13T12:45:06.454Z,12.10
2018-11-13T12:47:32.513Z,12.00
2018-11-13T12:49:59.824Z,11.90
2018-11-13T12:52:27.128Z,11.80
2018-11-13T12:54:54.449Z,11.80
2018-11-13T12:57:21.777Z,11.80
2018-11-13T12:59:49.396Z,11.80
2018-11-13T13:02:16.774Z,11.70
2018-11-13T13:04:44.036Z,11.70
2018-11-13T13:07:11.368Z,11.70
2018-11-13T13:09:38.708Z,11.70
2018-11-13T13:12:07.240Z,11.70
2018-11-13T13:14:34.558Z,11.70
2018-11-13T13:17:01.875Z,11.70
2018-11-13T13:19:29.250Z,11.70
2018-11-13T13:21:56.564Z,11.60
2018-11-13T13:24:25.200Z,11.50
2018-11-13T13:26:52.865Z,11.60
2018-11-13T13:29:20.320Z,11.50
2018-11-13T13:31:47.719Z,11.40
2018-11-13T13:34:14.989Z,11.40
2018-11-13T13:36:42.313Z,11.20
2018-11-13T13:39:09.840Z,11.20
2018-11-13T13:41:37.179Z,11.20
2018-11-13T13:44:04.885Z,11.20
2018-11-13T13:46:32.255Z,11.20
2018-11-13T13:49:07.777Z,11.20
2018-11-13T13:51:35.788Z,11.30
2018-11-13T13:54:03.413Z,11.20
2018-11-13T13:56:30.669Z,11.20
2018-11-13T13:58:57.982Z,11.30
2018-11-13T14:01:25.342Z,11.40
2018-11-13T14:03:52.664Z,11.30
2018-11-13T14:06:20.013Z,11.40
2018-11-13T14:08:47.343Z,11.50
2018-11-13T14:11:14.664Z,11.40
2018-11-13T14:13:41.988Z,11.30
2018-11-13T14:16:09.356Z,11.40
2018-11-13T14:18:36.701Z,11.30
2018-11-13T14:21:04.099Z,11.30
2018-11-13T14:23:31.422Z,11.40
2018-11-13T14:25:58.732Z,11.40
2018-11-13T14:28:26.044Z,11.50
2018-11-13T14:30:53.372Z,11.50
2018-11-13T14:33:20.676Z,11.50
2018-11-13T14:35:47.991Z,11.50
2018-11-13T14:38:15.300Z,11.40
2018-11-13T14:40:43.869Z,11.30
2018-11-13T14:43:11.516Z,11.20
2018-11-13T14:45:38.922Z,11.10
2018-11-13T14:48:06.850Z,11.20
2018-11-13T14:50:35.030Z,11.10
2018-11-13T14:53:02.524Z,11.30
2018-11-13T14:55:34.143Z,11.30
2018-11-13T14:58:02.208Z,11.30
2018-11-13T15:00:30.679Z,11.30
2018-11-13T15:02:58.755Z,11.30
2018-11-13T15:05:26.616Z,11.50
2018-11-13T15:07:55.317Z,11.60
2018-11-13T15:10:31.185Z,11.60
2018-11-13T15:12:58.521Z,11.60
2018-11-13T15:15:27.007Z,11.50
2018-11-13T15:17:54.222Z,11.50
2018-11-13T15:20:21.549Z,11.40
2018-11-13T15:22:48.872Z,11.40
2018-11-13T15:25:16.200Z,11.30
2018-11-13T15:27:44.384Z,11.30
2018-11-13T15:30:16.748Z,11.30
2018-11-13T15:32:45.860Z,11.40
2018-11-13T15:35:13.628Z,11.30
2018-11-13T15:37:41.584Z,11.40
2018-11-13T15:40:12.245Z,11.30
2018-11-13T15:42:40.796Z,11.20
2018-11-13T15:45:08.338Z,11.20
2018-11-13T15:47:36.673Z,11.20
2018-11-13T15:50:05.258Z,11.10
2018-11-13T15:52:32.596Z,11.20
2018-11-13T15:55:00.069Z,11.10
2018-11-13T15:57:27.388Z,11.10
2018-11-13T15:59:54.701Z,11.00
2018-11-13T16:02:22.015Z,11.10
2018-11-13T16:04:49.304Z,11.10
2018-11-13T16:07:16.574Z,11.00
2018-11-13T16:09:43.936Z,11.10
2018-11-13T16:12:11.253Z,11.10
2018-11-13T16:14:38.572Z,11.10
2018-11-13T16:17:05.908Z,11.00
2018-11-13T16:19:33.207Z,11.10
2018-11-13T16:22:00.529Z,11.20
2018-11-13T16:24:27.857Z,11.20
2018-11-13T16:26:55.201Z,11.20
2018-11-13T16:29:22.544Z,11.30
2018-11-13T16:31:49.853Z,11.20
2018-11-13T16:34:17.230Z,11.30
2018-11-13T16:36:44.555Z,11.20
2018-11-13T16:39:13.557Z,11.30
2018-11-13T16:41:41.206Z,11.30
2018-11-13T16:44:09.672Z,11.40
2018-11-13T16:46:36.972Z,11.30
2018-11-13T16:49:04.825Z,11.20
2018-11-13T16:51:32.127Z,11.00
2018-11-13T16:54:03.926Z,10.90
2018-11-13T16:56:35.988Z,10.90
2018-11-13T16:59:03.568Z,10.80
2018-11-13T17:01:30.926Z,10.90
2018-11-13T17:03:58.297Z,10.80
2018-11-13T17:06:25.690Z,10.80
2018-11-13T17:08:52.972Z,10.80
2018-11-13T17:11:20.311Z,10.70
2018-11-13T17:13:47.653Z,10.80
2018-11-13T17:16:15.038Z,10.90
2018-11-13T17:18:42.317Z,10.80
2018-11-13T17:21:09.666Z,10.80
2018-11-13T17:23:37.062Z,10.90
2018-11-13T17:26:04.714Z,10.80
2018-11-13T17:28:32.021Z,10.80
2018-11-13T17:30:59.344Z,10.80
2018-11-13T17:33:26.704Z,10.80
2018-11-13T17:35:54.033Z,10.80
2018-11-13T17:38:21.365Z,10.80
2018-11-13T17:40:48.693Z,10.80
2018-11-13T17:43:16.005Z,10.70
2018-11-13T17:45:43.334Z,10.60
2018-11-13T17:48:11.164Z,10.60
2018-11-13T17:50:39.742Z,10.70
2018-11-13T17:53:07.822Z,10.50
2018-11-13T17:55:35.268Z,10.50
2018-11-13T17:58:04.164Z,10.40
2018-11-13T18:00:44.366Z,10.30
2018-11-13T18:03:13.180Z,10.20
2018-11-13T18:05:41.100Z,10.10
2018-11-13T18:08:10.193Z,10.20
2018-11-13T18:10:39.592Z,10.20
2018-11-13T18:13:07.149Z,10.10
2018-11-13T18:15:34.496Z,10.10
2018-11-13T18:18:02.184Z,10.10
2018-11-13T18:20:31.670Z,10.10
2018-11-13T18:22:58.998Z,10.10
2018-11-13T18:25:26.683Z,10.10
2018-11-13T18:27:55.197Z,10.00
2018-11-13T18:30:23.760Z,9.90
2018-11-13T18:32:51.394Z,9.70
2018-11-13T18:35:22.064Z,9.40
2018-11-13T18:37:50.647Z,9.30
2018-11-13T18:40:18.916Z,9.10
2018-11-13T18:42:47.484Z,8.90
2018-11-13T18:45:18.541Z,8.80
2018-11-13T18:47:46.069Z,8.80
2018-11-13T18:50:15.756Z,8.80
2018-11-13T18:52:44.309Z,8.80
2018-11-13T18:55:12.060Z,8.70
2018-11-13T18:57:40.652Z,8.70
2018-11-13T19:00:13.267Z,8.60
2018-11-13T19:02:40.893Z,8.40
2018-11-13T19:05:09.009Z,8.20
2018-11-13T19:07:36.323Z,8.10
2018-11-13T19:10:07.069Z,8.20
2018-11-13T19:12:34.495Z,8.10
2018-11-13T19:15:01.857Z,8.10
2018-11-13T19:17:29.191Z,8.20
2018-11-13T19:19:56.598Z,8.20
2018-11-13T19:22:23.857Z,8.30
2018-11-13T19:24:51.196Z,8.40
2018-11-13T19:27:18.554Z,8.50
2018-11-13T19:29:45.918Z,8.50
2018-11-13T19:32:13.228Z,8.60
2018-11-13T19:34:40.585Z,8.60
2018-11-13T19:37:07.933Z,8.60
2018-11-13T19:39:35.296Z,8.60
2018-11-13T19:42:02.664Z,8.60
2018-11-13T19:44:30.030Z,8.40
2018-11-13T19:46:57.401Z,8.30
2018-11-13T19:49:25.006Z,8.30
2018-11-13T19:51:52.102Z,8.20
2018-11-13T19:54:19.520Z,8.10
2018-11-13T19:56:46.835Z,8.00
2018-11-13T19:59:14.160Z,7.80
2018-11-13T20:01:41.483Z,7.80
2018-11-13T20:04:08.845Z,7.80
2018-11-13T20:06:36.132Z,7.80
2018-11-13T20:09:05.220Z,7.70
2018-11-13T20:11:32.549Z,7.50
2018-11-13T20:13:59.878Z,7.20
2018-11-13T20:16:27.233Z,7.00
2018-11-13T20:18:54.569Z,7.00
2018-11-13T20:21:23.208Z,7.10
2018-11-13T20:23:51.221Z,7.20
2018-11-13T20:26:18.656Z,7.30
2018-11-13T20:28:45.969Z,7.30
2018-11-13T20:31:13.451Z,7.30
2018-11-13T20:33:40.759Z,7.20
2018-11-13T20:36:08.052Z,7.20
2018-11-13T20:38:35.356Z,7.20
2018-11-13T20:41:02.675Z,7.10
2018-11-13T20:43:30.061Z,7.10
2018-11-13T20:45:57.315Z,7.00
2018-11-13T20:48:24.615Z,6.90
2018-11-13T20:50:51.931Z,6.80
2018-11-13T20:53:19.287Z,6.70
2018-11-13T20:55:46.600Z,6.70
2018-11-13T20:58:13.909Z,6.70
2018-11-13T21:00:41.268Z,6.70
2018-11-13T21:03:08.633Z,6.70
2018-11-13T21:05:36.980Z,6.50
2018-11-13T21:08:04.385Z,6.60
2018-11-13T21:10:33.812Z,6.60
2018-11-13T21:13:01.450Z,6.50
2018-11-13T21:15:29.816Z,6.60
2018-11-13T21:17:57.133Z,6.60
2018-11-13T21:20:24.832Z,6.60
2018-11-13T21:22:51.809Z,6.60
2018-11-13T21:25:21.396Z,6.60
2018-11-13T21:27:51.283Z,6.50
2018-11-13T21:30:19.899Z,6.50
2018-11-13T21:32:47.865Z,6.50
2018-11-13T21:35:15.630Z,6.40
2018-11-13T21:37:44.322Z,6.40
2018-11-13T21:40:13.924Z,6.40
2018-11-13T21:42:42.050Z,6.40
2018-11-13T21:45:10.164Z,6.30
2018-11-13T21:47:37.674Z,6.30
2018-11-13T21:50:07.237Z,6.40
2018-11-13T21:52:34.584Z,6.20
2018-11-13T21:55:02.621Z,6.10
2018-11-13T21:57:30.004Z,6.10
2018-11-13T21:59:57.409Z,6.00
2018-11-13T22:02:24.744Z,6.00
2018-11-13T22:04:52.164Z,6.00
2018-11-13T22:07:19.442Z,6.00
2018-11-13T22:09:46.775Z,6.00
2018-11-13T22:12:15.092Z,5.90
2018-11-13T22:14:42.476Z,5.90
2018-11-13T22:17:09.805Z,5.90
2018-11-13T22:19:37.163Z,5.90
2018-11-13T22:22:04.528Z,5.90
2018-11-13T22:24:32.521Z,5.90
2018-11-13T22:26:59.917Z,5.90
2018-11-13T22:29:27.184Z,5.90
2018-11-13T22:31:54.496Z,5.90
2018-11-13T22:34:21.825Z,5.90
2018-11-13T22:36:49.160Z,5.90
2018-11-13T22:39:16.489Z,5.80
2018-11-13T22:41:43.821Z,5.90
2018-11-13T22:44:11.155Z,5.80
2018-11-13T22:46:38.476Z,5.80
2018-11-13T22:49:06.104Z,5.80
2018-11-13T22:51:33.413Z,5.80
2018-11-13T22:54:00.734Z,5.70
2018-11-13T22:56:28.060Z,5.70
2018-11-13T22:58:55.438Z,5.70
2018-11-13T23:01:22.720Z,5.80
2018-11-13T23:03:50.036Z,5.70
2018-11-13T23:06:17.373Z,5.70
2018-11-13T23:08:44.708Z,5.70
2018-11-13T23:11:13.944Z,5.60
2018-11-13T23:13:41.497Z,5.70
2018-11-13T23:16:08.853Z,5.60
2018-11-13T23:18:36.412Z,5.70
2018-11-13T23:21:03.800Z,5.70
2018-11-13T23:23:31.689Z,5.70
2018-11-13T23:25:59.080Z,5.70
2018-11-13T23:28:26.413Z,5.80
2018-11-13T23:30:54.079Z,5.80
2018-11-13T23:33:21.069Z,5.80
2018-11-13T23:35:48.388Z,5.80
2018-11-13T23:38:16.180Z,5.80
2018-11-13T23:40:44.549Z,5.80
2018-11-13T23:43:11.865Z,5.70
2018-11-13T23:45:39.184Z,5.60
2018-11-13T23:48:06.505Z,5.60
2018-11-13T23:50:33.818Z,5.60
2018-11-13T23:53:01.157Z,5.50
2018-11-13T23:55:28.518Z,5.50
2018-11-13T23:57:55.860Z,5.40
